Hefei, China
Current Conditions -  °F | °C
As of 4:00 AM on Friday 19 Dec 2014 (Local Time) from ZSOF Reporting Station
Clear Clear  
Wind Chill: 37°   Ceiling: Unl
Heat Index: 43°   Visibility: 5mi
Dew Point: 25°   Wind: 11mph
Humidity: 49%   Direction: 160°SSE
Pressure: 30.3"   Gusts: NA
Location:  31.85°N, 117.28°E
Report Text: ZSOF 182000Z 16005MPS 130V210 8000 NSC 06/M04 Q1026 NOSIG
Loading
Personal Weather Stations






























Interactive Weather Map New forecast layout! Learn more

10-Day Weather Forecast

Advertisements
Track Severe Weather on mobile